sensor_id;sensor_type;location;lat;lon;timestamp;temperature;humidity
80701;DHT22;71609;42.630;23.380;2023-08-06T00:00:09;29.40;47.70
80701;DHT22;71609;42.630;23.380;2023-08-06T00:02:34;29.40;47.60
80701;DHT22;71609;42.630;23.380;2023-08-06T00:05:00;29.40;47.80
80701;DHT22;71609;42.630;23.380;2023-08-06T00:07:26;29.40;47.60
80701;DHT22;71609;42.630;23.380;2023-08-06T00:09:51;29.40;47.60
80701;DHT22;71609;42.630;23.380;2023-08-06T00:12:17;29.40;47.70
80701;DHT22;71609;42.630;23.380;2023-08-06T00:14:43;29.40;47.70
80701;DHT22;71609;42.630;23.380;2023-08-06T00:17:09;29.40;47.70
80701;DHT22;71609;42.630;23.380;2023-08-06T00:19:34;29.40;47.70
80701;DHT22;71609;42.630;23.380;2023-08-06T00:22:00;29.40;47.70
80701;DHT22;71609;42.630;23.380;2023-08-06T00:24:27;29.40;47.80
80701;DHT22;71609;42.630;23.380;2023-08-06T00:26:53;29.40;47.80
80701;DHT22;71609;42.630;23.380;2023-08-06T00:29:18;29.40;47.80
80701;DHT22;71609;42.630;23.380;2023-08-06T00:31:44;29.40;47.80
80701;DHT22;71609;42.630;23.380;2023-08-06T00:34:10;29.40;47.80
80701;DHT22;71609;42.630;23.380;2023-08-06T00:36:35;29.40;47.80
80701;DHT22;71609;42.630;23.380;2023-08-06T00:39:01;29.40;47.80
80701;DHT22;71609;42.630;23.380;2023-08-06T00:41:27;29.40;47.80
80701;DHT22;71609;42.630;23.380;2023-08-06T00:43:53;29.30;47.70
80701;DHT22;71609;42.630;23.380;2023-08-06T00:46:19;29.30;47.80
80701;DHT22;71609;42.630;23.380;2023-08-06T00:48:44;29.30;47.80
80701;DHT22;71609;42.630;23.380;2023-08-06T00:51:10;29.30;47.80
80701;DHT22;71609;42.630;23.380;2023-08-06T00:53:38;29.30;47.80
80701;DHT22;71609;42.630;23.380;2023-08-06T00:56:04;29.30;47.90
80701;DHT22;71609;42.630;23.380;2023-08-06T00:58:30;29.30;47.90
80701;DHT22;71609;42.630;23.380;2023-08-06T01:00:56;29.30;48.00
80701;DHT22;71609;42.630;23.380;2023-08-06T01:03:22;29.30;47.90
80701;DHT22;71609;42.630;23.380;2023-08-06T01:05:47;29.30;47.90
80701;DHT22;71609;42.630;23.380;2023-08-06T01:11:21;29.30;47.90
80701;DHT22;71609;42.630;23.380;2023-08-06T01:13:58;29.30;48.00
80701;DHT22;71609;42.630;23.380;2023-08-06T01:16:25;29.30;48.00
80701;DHT22;71609;42.630;23.380;2023-08-06T01:18:51;29.30;48.00
80701;DHT22;71609;42.630;23.380;2023-08-06T01:21:17;29.30;48.00
80701;DHT22;71609;42.630;23.380;2023-08-06T01:23:43;29.30;48.10
80701;DHT22;71609;42.630;23.380;2023-08-06T01:29:00;29.30;48.10
80701;DHT22;71609;42.630;23.380;2023-08-06T01:31:36;29.30;48.10
80701;DHT22;71609;42.630;23.380;2023-08-06T01:34:03;29.30;48.10
80701;DHT22;71609;42.630;23.380;2023-08-06T01:36:30;29.30;48.10
80701;DHT22;71609;42.630;23.380;2023-08-06T01:38:56;29.30;48.10
80701;DHT22;71609;42.630;23.380;2023-08-06T01:41:22;29.20;48.00
80701;DHT22;71609;42.630;23.380;2023-08-06T01:43:48;29.30;48.20
80701;DHT22;71609;42.630;23.380;2023-08-06T01:46:14;29.30;48.10
80701;DHT22;71609;42.630;23.380;2023-08-06T01:48:40;29.20;48.00
80701;DHT22;71609;42.630;23.380;2023-08-06T01:51:06;29.20;48.10
80701;DHT22;71609;42.630;23.380;2023-08-06T01:53:32;29.20;48.00
80701;DHT22;71609;42.630;23.380;2023-08-06T01:55:58;29.20;48.00
80701;DHT22;71609;42.630;23.380;2023-08-06T01:58:23;29.20;48.00
80701;DHT22;71609;42.630;23.380;2023-08-06T02:00:49;29.20;48.00
80701;DHT22;71609;42.630;23.380;2023-08-06T02:03:15;29.20;48.10
80701;DHT22;71609;42.630;23.380;2023-08-06T02:05:41;29.20;48.10
80701;DHT22;71609;42.630;23.380;2023-08-06T02:08:06;29.20;48.10
80701;DHT22;71609;42.630;23.380;2023-08-06T02:10:32;29.20;48.10
80701;DHT22;71609;42.630;23.380;2023-08-06T02:12:58;29.30;48.10
80701;DHT22;71609;42.630;23.380;2023-08-06T02:15:24;29.20;48.10
80701;DHT22;71609;42.630;23.380;2023-08-06T02:17:49;29.30;48.20
80701;DHT22;71609;42.630;23.380;2023-08-06T02:20:15;29.20;48.10
80701;DHT22;71609;42.630;23.380;2023-08-06T02:22:41;29.20;48.10
80701;DHT22;71609;42.630;23.380;2023-08-06T02:25:06;29.20;48.20
80701;DHT22;71609;42.630;23.380;2023-08-06T02:27:32;29.20;48.20
80701;DHT22;71609;42.630;23.380;2023-08-06T02:29:58;29.20;48.20
80701;DHT22;71609;42.630;23.380;2023-08-06T02:32:23;29.20;48.10
80701;DHT22;71609;42.630;23.380;2023-08-06T02:34:49;29.20;48.20
80701;DHT22;71609;42.630;23.380;2023-08-06T02:37:15;29.20;48.20
80701;DHT22;71609;42.630;23.380;2023-08-06T02:39:40;29.20;48.20
80701;DHT22;71609;42.630;23.380;2023-08-06T02:42:07;29.20;48.20
80701;DHT22;71609;42.630;23.380;2023-08-06T02:44:52;29.20;48.20
80701;DHT22;71609;42.630;23.380;2023-08-06T02:47:17;29.20;49.30
80701;DHT22;71609;42.630;23.380;2023-08-06T02:49:43;29.20;48.20
80701;DHT22;71609;42.630;23.380;2023-08-06T02:52:09;29.20;48.20
80701;DHT22;71609;42.630;23.380;2023-08-06T02:54:35;29.20;48.20
80701;DHT22;71609;42.630;23.380;2023-08-06T02:57:00;29.20;48.30
80701;DHT22;71609;42.630;23.380;2023-08-06T02:59:26;29.20;48.20
80701;DHT22;71609;42.630;23.380;2023-08-06T03:01:52;29.20;48.20
80701;DHT22;71609;42.630;23.380;2023-08-06T03:04:17;29.20;48.30
80701;DHT22;71609;42.630;23.380;2023-08-06T03:06:43;29.20;48.20
80701;DHT22;71609;42.630;23.380;2023-08-06T03:09:09;29.20;48.20
80701;DHT22;71609;42.630;23.380;2023-08-06T03:11:35;29.10;49.20
80701;DHT22;71609;42.630;23.380;2023-08-06T03:14:00;29.20;48.30
80701;DHT22;71609;42.630;23.380;2023-08-06T03:16:27;29.20;48.20
80701;DHT22;71609;42.630;23.380;2023-08-06T03:18:52;29.20;48.40
80701;DHT22;71609;42.630;23.380;2023-08-06T03:21:18;29.20;48.30
80701;DHT22;71609;42.630;23.380;2023-08-06T03:23:47;29.20;48.20
80701;DHT22;71609;42.630;23.380;2023-08-06T03:26:13;29.10;48.20
80701;DHT22;71609;42.630;23.380;2023-08-06T03:28:39;29.10;48.20
80701;DHT22;71609;42.630;23.380;2023-08-06T03:31:04;29.10;48.30
80701;DHT22;71609;42.630;23.380;2023-08-06T03:33:30;29.20;48.40
80701;DHT22;71609;42.630;23.380;2023-08-06T03:35:56;29.10;48.30
80701;DHT22;71609;42.630;23.380;2023-08-06T03:38:22;29.10;48.30
80701;DHT22;71609;42.630;23.380;2023-08-06T03:40:48;29.10;48.30
80701;DHT22;71609;42.630;23.380;2023-08-06T03:43:14;29.10;48.30
80701;DHT22;71609;42.630;23.380;2023-08-06T03:45:40;29.10;48.40
80701;DHT22;71609;42.630;23.380;2023-08-06T03:48:06;29.10;48.30
80701;DHT22;71609;42.630;23.380;2023-08-06T03:50:32;29.10;48.30
80701;DHT22;71609;42.630;23.380;2023-08-06T03:52:58;29.10;48.30
80701;DHT22;71609;42.630;23.380;2023-08-06T03:55:24;29.10;48.30
80701;DHT22;71609;42.630;23.380;2023-08-06T03:57:49;29.10;48.30
80701;DHT22;71609;42.630;23.380;2023-08-06T04:00:15;29.10;48.30
80701;DHT22;71609;42.630;23.380;2023-08-06T04:02:41;29.10;48.30
80701;DHT22;71609;42.630;23.380;2023-08-06T04:05:07;29.10;48.30
80701;DHT22;71609;42.630;23.380;2023-08-06T04:07:32;29.10;48.30
80701;DHT22;71609;42.630;23.380;2023-08-06T04:10:00;29.10;48.40
80701;DHT22;71609;42.630;23.380;2023-08-06T04:12:27;29.10;48.30
80701;DHT22;71609;42.630;23.380;2023-08-06T04:14:53;29.10;48.40
80701;DHT22;71609;42.630;23.380;2023-08-06T04:17:22;29.10;48.40
80701;DHT22;71609;42.630;23.380;2023-08-06T04:19:52;29.10;48.40
80701;DHT22;71609;42.630;23.380;2023-08-06T04:22:18;29.10;48.40
80701;DHT22;71609;42.630;23.380;2023-08-06T04:24:44;29.10;48.40
80701;DHT22;71609;42.630;23.380;2023-08-06T04:27:11;29.10;48.40
80701;DHT22;71609;42.630;23.380;2023-08-06T04:29:37;29.10;48.40
80701;DHT22;71609;42.630;23.380;2023-08-06T04:32:05;29.10;48.40
80701;DHT22;71609;42.630;23.380;2023-08-06T04:34:31;29.10;48.40
80701;DHT22;71609;42.630;23.380;2023-08-06T04:36:56;29.10;48.40
80701;DHT22;71609;42.630;23.380;2023-08-06T04:39:22;29.10;48.40
80701;DHT22;71609;42.630;23.380;2023-08-06T04:41:47;29.10;48.50
80701;DHT22;71609;42.630;23.380;2023-08-06T04:44:13;29.10;48.40
80701;DHT22;71609;42.630;23.380;2023-08-06T04:46:39;29.10;48.50
80701;DHT22;71609;42.630;23.380;2023-08-06T04:49:04;29.10;48.50
80701;DHT22;71609;42.630;23.380;2023-08-06T04:51:30;29.10;48.50
80701;DHT22;71609;42.630;23.380;2023-08-06T04:53:57;29.10;48.50
80701;DHT22;71609;42.630;23.380;2023-08-06T04:56:23;29.10;48.40
80701;DHT22;71609;42.630;23.380;2023-08-06T04:58:49;29.10;48.50
80701;DHT22;71609;42.630;23.380;2023-08-06T05:01:15;29.10;48.50
80701;DHT22;71609;42.630;23.380;2023-08-06T05:03:40;29.10;48.50
80701;DHT22;71609;42.630;23.380;2023-08-06T05:06:06;29.10;48.40
80701;DHT22;71609;42.630;23.380;2023-08-06T05:08:32;29.10;48.50
80701;DHT22;71609;42.630;23.380;2023-08-06T05:10:57;29.10;48.40
80701;DHT22;71609;42.630;23.380;2023-08-06T05:13:23;29.20;48.50
80701;DHT22;71609;42.630;23.380;2023-08-06T05:15:49;29.20;48.50
80701;DHT22;71609;42.630;23.380;2023-08-06T05:18:15;29.20;48.40
80701;DHT22;71609;42.630;23.380;2023-08-06T05:20:41;29.20;48.30
80701;DHT22;71609;42.630;23.380;2023-08-06T05:23:07;29.30;49.40
80701;DHT22;71609;42.630;23.380;2023-08-06T05:25:37;29.20;48.20
80701;DHT22;71609;42.630;23.380;2023-08-06T05:28:03;29.30;48.30
80701;DHT22;71609;42.630;23.380;2023-08-06T05:30:29;29.30;48.30
80701;DHT22;71609;42.630;23.380;2023-08-06T05:32:54;29.20;48.20
80701;DHT22;71609;42.630;23.380;2023-08-06T05:35:21;29.20;48.20
80701;DHT22;71609;42.630;23.380;2023-08-06T05:37:47;29.30;48.40
80701;DHT22;71609;42.630;23.380;2023-08-06T05:40:13;29.20;48.20
80701;DHT22;71609;42.630;23.380;2023-08-06T05:42:39;29.30;48.30
80701;DHT22;71609;42.630;23.380;2023-08-06T05:45:06;29.20;48.30
80701;DHT22;71609;42.630;23.380;2023-08-06T05:47:31;29.20;48.20
80701;DHT22;71609;42.630;23.380;2023-08-06T05:49:57;29.30;48.30
80701;DHT22;71609;42.630;23.380;2023-08-06T05:52:23;29.30;48.20
80701;DHT22;71609;42.630;23.380;2023-08-06T05:54:48;29.30;48.20
80701;DHT22;71609;42.630;23.380;2023-08-06T05:57:14;29.30;48.10
80701;DHT22;71609;42.630;23.380;2023-08-06T05:59:40;29.30;48.10
80701;DHT22;71609;42.630;23.380;2023-08-06T06:02:06;29.40;48.10
80701;DHT22;71609;42.630;23.380;2023-08-06T06:04:32;29.40;48.00
80701;DHT22;71609;42.630;23.380;2023-08-06T06:06:58;29.40;48.00
80701;DHT22;71609;42.630;23.380;2023-08-06T06:09:23;29.50;47.90
80701;DHT22;71609;42.630;23.380;2023-08-06T06:11:49;29.50;47.70
80701;DHT22;71609;42.630;23.380;2023-08-06T06:14:18;29.60;47.70
80701;DHT22;71609;42.630;23.380;2023-08-06T06:16:44;29.60;47.50
80701;DHT22;71609;42.630;23.380;2023-08-06T06:19:10;29.60;47.50
80701;DHT22;71609;42.630;23.380;2023-08-06T06:21:36;29.60;47.60
80701;DHT22;71609;42.630;23.380;2023-08-06T06:24:03;29.60;47.60
80701;DHT22;71609;42.630;23.380;2023-08-06T06:26:30;29.60;47.70
80701;DHT22;71609;42.630;23.380;2023-08-06T06:28:55;29.60;47.70
80701;DHT22;71609;42.630;23.380;2023-08-06T06:31:21;29.50;47.70
80701;DHT22;71609;42.630;23.380;2023-08-06T06:33:47;29.50;47.60
80701;DHT22;71609;42.630;23.380;2023-08-06T06:36:12;29.50;47.70
80701;DHT22;71609;42.630;23.380;2023-08-06T06:38:38;29.50;47.70
80701;DHT22;71609;42.630;23.380;2023-08-06T06:41:04;29.50;48.30
80701;DHT22;71609;42.630;23.380;2023-08-06T06:43:30;29.50;47.80
80701;DHT22;71609;42.630;23.380;2023-08-06T06:45:59;29.50;47.80
80701;DHT22;71609;42.630;23.380;2023-08-06T06:48:29;29.50;47.90
80701;DHT22;71609;42.630;23.380;2023-08-06T06:50:55;29.50;47.90
80701;DHT22;71609;42.630;23.380;2023-08-06T06:53:21;29.50;47.90
80701;DHT22;71609;42.630;23.380;2023-08-06T06:55:53;29.50;47.90
80701;DHT22;71609;42.630;23.380;2023-08-06T06:58:19;29.50;47.90
80701;DHT22;71609;42.630;23.380;2023-08-06T07:00:46;29.50;48.00
80701;DHT22;71609;42.630;23.380;2023-08-06T07:03:11;29.50;47.90
80701;DHT22;71609;42.630;23.380;2023-08-06T07:05:37;29.50;47.90
80701;DHT22;71609;42.630;23.380;2023-08-06T07:08:03;29.50;48.00
80701;DHT22;71609;42.630;23.380;2023-08-06T07:10:28;29.50;47.90
80701;DHT22;71609;42.630;23.380;2023-08-06T07:12:54;29.40;47.90
80701;DHT22;71609;42.630;23.380;2023-08-06T07:15:20;29.50;47.90
80701;DHT22;71609;42.630;23.380;2023-08-06T07:17:45;29.50;48.00
80701;DHT22;71609;42.630;23.380;2023-08-06T07:20:11;29.50;47.90
80701;DHT22;71609;42.630;23.380;2023-08-06T07:22:37;29.50;48.00
80701;DHT22;71609;42.630;23.380;2023-08-06T07:25:03;29.50;47.90
80701;DHT22;71609;42.630;23.380;2023-08-06T07:27:28;29.60;47.70
80701;DHT22;71609;42.630;23.380;2023-08-06T07:29:54;29.70;47.60
80701;DHT22;71609;42.630;23.380;2023-08-06T07:32:20;29.80;47.40
80701;DHT22;71609;42.630;23.380;2023-08-06T07:34:45;29.90;47.00
80701;DHT22;71609;42.630;23.380;2023-08-06T07:37:11;30.00;46.80
80701;DHT22;71609;42.630;23.380;2023-08-06T07:39:37;30.10;46.50
80701;DHT22;71609;42.630;23.380;2023-08-06T07:42:05;30.20;46.30
80701;DHT22;71609;42.630;23.380;2023-08-06T07:44:32;30.30;46.00
80701;DHT22;71609;42.630;23.380;2023-08-06T07:46:58;30.40;45.80
80701;DHT22;71609;42.630;23.380;2023-08-06T07:49:23;30.50;45.50
80701;DHT22;71609;42.630;23.380;2023-08-06T07:51:49;30.60;45.30
80701;DHT22;71609;42.630;23.380;2023-08-06T07:54:17;30.70;45.20
80701;DHT22;71609;42.630;23.380;2023-08-06T07:56:42;30.80;44.90
80701;DHT22;71609;42.630;23.380;2023-08-06T07:59:08;30.90;44.60
80701;DHT22;71609;42.630;23.380;2023-08-06T08:01:34;30.90;44.40
80701;DHT22;71609;42.630;23.380;2023-08-06T08:04:00;31.10;44.20
80701;DHT22;71609;42.630;23.380;2023-08-06T08:06:25;31.20;44.00
80701;DHT22;71609;42.630;23.380;2023-08-06T08:08:51;31.20;43.80
80701;DHT22;71609;42.630;23.380;2023-08-06T08:11:17;31.30;43.60
80701;DHT22;71609;42.630;23.380;2023-08-06T08:13:44;31.40;43.40
80701;DHT22;71609;42.630;23.380;2023-08-06T08:16:09;31.50;43.20
80701;DHT22;71609;42.630;23.380;2023-08-06T08:18:35;31.60;43.10
80701;DHT22;71609;42.630;23.380;2023-08-06T08:21:01;31.70;42.90
80701;DHT22;71609;42.630;23.380;2023-08-06T08:23:26;31.70;42.70
80701;DHT22;71609;42.630;23.380;2023-08-06T08:25:52;31.80;42.60
80701;DHT22;71609;42.630;23.380;2023-08-06T08:28:18;31.80;42.50
80701;DHT22;71609;42.630;23.380;2023-08-06T08:30:43;31.90;42.30
80701;DHT22;71609;42.630;23.380;2023-08-06T08:33:09;32.00;42.20
80701;DHT22;71609;42.630;23.380;2023-08-06T08:35:36;32.00;42.00
80701;DHT22;71609;42.630;23.380;2023-08-06T08:38:02;32.10;41.90
80701;DHT22;71609;42.630;23.380;2023-08-06T08:40:32;32.10;41.80
80701;DHT22;71609;42.630;23.380;2023-08-06T08:42:58;32.20;41.60
80701;DHT22;71609;42.630;23.380;2023-08-06T08:45:28;32.20;41.50
80701;DHT22;71609;42.630;23.380;2023-08-06T08:47:54;32.30;41.40
80701;DHT22;71609;42.630;23.380;2023-08-06T08:50:21;32.30;41.30
80701;DHT22;71609;42.630;23.380;2023-08-06T08:52:47;32.40;41.30
80701;DHT22;71609;42.630;23.380;2023-08-06T08:55:15;32.40;41.10
80701;DHT22;71609;42.630;23.380;2023-08-06T08:57:41;32.40;41.00
80701;DHT22;71609;42.630;23.380;2023-08-06T09:00:07;32.50;41.00
80701;DHT22;71609;42.630;23.380;2023-08-06T09:02:34;32.60;40.90
80701;DHT22;71609;42.630;23.380;2023-08-06T09:05:01;32.60;40.80
80701;DHT22;71609;42.630;23.380;2023-08-06T09:07:35;32.60;40.70
80701;DHT22;71609;42.630;23.380;2023-08-06T09:10:04;32.60;40.60
80701;DHT22;71609;42.630;23.380;2023-08-06T09:12:31;32.70;40.60
80701;DHT22;71609;42.630;23.380;2023-08-06T09:14:57;32.70;40.50
80701;DHT22;71609;42.630;23.380;2023-08-06T09:17:23;32.70;40.40
80701;DHT22;71609;42.630;23.380;2023-08-06T09:19:49;32.70;40.30
80701;DHT22;71609;42.630;23.380;2023-08-06T09:22:15;32.80;40.30
80701;DHT22;71609;42.630;23.380;2023-08-06T09:24:42;32.80;40.30
80701;DHT22;71609;42.630;23.380;2023-08-06T09:27:12;32.80;41.30
80701;DHT22;71609;42.630;23.380;2023-08-06T09:29:45;32.80;40.20
80701;DHT22;71609;42.630;23.380;2023-08-06T09:32:13;32.90;40.20
80701;DHT22;71609;42.630;23.380;2023-08-06T09:34:41;32.80;40.00
80701;DHT22;71609;42.630;23.380;2023-08-06T09:37:08;32.90;40.10
80701;DHT22;71609;42.630;23.380;2023-08-06T09:39:35;32.90;40.10
80701;DHT22;71609;42.630;23.380;2023-08-06T09:42:01;32.90;40.00
80701;DHT22;71609;42.630;23.380;2023-08-06T09:44:29;32.90;40.00
80701;DHT22;71609;42.630;23.380;2023-08-06T09:46:57;33.00;40.00
80701;DHT22;71609;42.630;23.380;2023-08-06T09:51:58;32.90;40.00
80701;DHT22;71609;42.630;23.380;2023-08-06T09:54:26;32.90;40.00
80701;DHT22;71609;42.630;23.380;2023-08-06T09:56:53;32.80;40.20
80701;DHT22;71609;42.630;23.380;2023-08-06T09:59:19;32.80;40.30
80701;DHT22;71609;42.630;23.380;2023-08-06T10:01:46;32.70;41.50
80701;DHT22;71609;42.630;23.380;2023-08-06T10:04:13;32.70;40.60
80701;DHT22;71609;42.630;23.380;2023-08-06T10:06:42;32.60;40.60
80701;DHT22;71609;42.630;23.380;2023-08-06T10:09:09;32.50;40.70
80701;DHT22;71609;42.630;23.380;2023-08-06T10:11:36;32.50;40.80
80701;DHT22;71609;42.630;23.380;2023-08-06T10:14:26;32.60;40.90
80701;DHT22;71609;42.630;23.380;2023-08-06T10:16:53;32.60;40.90
80701;DHT22;71609;42.630;23.380;2023-08-06T10:19:20;32.60;40.80
80701;DHT22;71609;42.630;23.380;2023-08-06T10:27:13;32.60;40.70
80701;DHT22;71609;42.630;23.380;2023-08-06T10:29:39;32.60;40.80
80701;DHT22;71609;42.630;23.380;2023-08-06T10:32:04;32.50;40.90
80701;DHT22;71609;42.630;23.380;2023-08-06T10:34:58;32.40;41.00
80701;DHT22;71609;42.630;23.380;2023-08-06T10:37:35;32.40;41.20
80701;DHT22;71609;42.630;23.380;2023-08-06T10:40:02;32.30;41.40
80701;DHT22;71609;42.630;23.380;2023-08-06T10:42:29;32.20;41.50
80701;DHT22;71609;42.630;23.380;2023-08-06T10:45:17;32.20;41.70
80701;DHT22;71609;42.630;23.380;2023-08-06T10:47:44;32.10;41.80
80701;DHT22;71609;42.630;23.380;2023-08-06T10:50:15;32.00;42.00
80701;DHT22;71609;42.630;23.380;2023-08-06T10:52:47;31.90;42.10
80701;DHT22;71609;42.630;23.380;2023-08-06T10:55:24;31.90;42.30
80701;DHT22;71609;42.630;23.380;2023-08-06T10:57:50;31.80;42.50
80701;DHT22;71609;42.630;23.380;2023-08-06T11:00:16;31.70;42.50
80701;DHT22;71609;42.630;23.380;2023-08-06T11:02:42;31.70;42.70
80701;DHT22;71609;42.630;23.380;2023-08-06T11:05:10;31.60;42.80
80701;DHT22;71609;42.630;23.380;2023-08-06T11:07:37;31.60;42.90
80701;DHT22;71609;42.630;23.380;2023-08-06T11:10:03;31.50;43.00
80701;DHT22;71609;42.630;23.380;2023-08-06T11:12:30;31.50;43.10
80701;DHT22;71609;42.630;23.380;2023-08-06T11:14:56;31.50;43.30
80701;DHT22;71609;42.630;23.380;2023-08-06T11:17:22;31.40;43.30
80701;DHT22;71609;42.630;23.380;2023-08-06T11:19:47;31.40;43.30
80701;DHT22;71609;42.630;23.380;2023-08-06T11:22:14;31.40;43.30
80701;DHT22;71609;42.630;23.380;2023-08-06T11:24:40;31.40;43.40
80701;DHT22;71609;42.630;23.380;2023-08-06T11:27:16;31.40;43.40
80701;DHT22;71609;42.630;23.380;2023-08-06T11:29:43;31.40;43.40
80701;DHT22;71609;42.630;23.380;2023-08-06T11:32:10;31.40;43.40
80701;DHT22;71609;42.630;23.380;2023-08-06T11:34:37;31.40;43.40
80701;DHT22;71609;42.630;23.380;2023-08-06T11:37:03;31.40;43.40
80701;DHT22;71609;42.630;23.380;2023-08-06T11:39:34;31.40;43.40
80701;DHT22;71609;42.630;23.380;2023-08-06T11:42:03;31.40;43.40
80701;DHT22;71609;42.630;23.380;2023-08-06T11:44:34;31.40;43.40
80701;DHT22;71609;42.630;23.380;2023-08-06T11:47:01;31.40;43.50
80701;DHT22;71609;42.630;23.380;2023-08-06T11:49:54;31.40;43.50
80701;DHT22;71609;42.630;23.380;2023-08-06T11:52:24;31.30;43.40
80701;DHT22;71609;42.630;23.380;2023-08-06T11:57:32;31.30;43.70
80701;DHT22;71609;42.630;23.380;2023-08-06T12:00:04;31.20;43.70
80701;DHT22;71609;42.630;23.380;2023-08-06T12:02:32;31.20;43.80
80701;DHT22;71609;42.630;23.380;2023-08-06T12:05:21;31.20;43.90
80701;DHT22;71609;42.630;23.380;2023-08-06T12:07:56;31.20;44.00
80701;DHT22;71609;42.630;23.380;2023-08-06T12:10:24;31.10;44.00
80701;DHT22;71609;42.630;23.380;2023-08-06T12:12:50;31.10;44.20
80701;DHT22;71609;42.630;23.380;2023-08-06T12:15:16;31.10;44.20
80701;DHT22;71609;42.630;23.380;2023-08-06T12:17:41;31.00;44.20
80701;DHT22;71609;42.630;23.380;2023-08-06T12:20:08;31.00;44.20
80701;DHT22;71609;42.630;23.380;2023-08-06T12:22:35;31.00;44.20
80701;DHT22;71609;42.630;23.380;2023-08-06T12:25:02;31.00;44.20
80701;DHT22;71609;42.630;23.380;2023-08-06T12:27:34;31.00;44.40
80701;DHT22;71609;42.630;23.380;2023-08-06T12:30:00;31.00;44.40
80701;DHT22;71609;42.630;23.380;2023-08-06T12:32:26;31.00;44.40
80701;DHT22;71609;42.630;23.380;2023-08-06T12:34:51;31.00;44.50
80701;DHT22;71609;42.630;23.380;2023-08-06T12:37:17;30.90;44.50
80701;DHT22;71609;42.630;23.380;2023-08-06T12:39:43;30.90;44.50
80701;DHT22;71609;42.630;23.380;2023-08-06T12:42:08;30.90;44.60
80701;DHT22;71609;42.630;23.380;2023-08-06T12:44:35;30.90;44.70
80701;DHT22;71609;42.630;23.380;2023-08-06T12:47:01;30.90;44.70
80701;DHT22;71609;42.630;23.380;2023-08-06T12:49:27;30.80;44.70
80701;DHT22;71609;42.630;23.380;2023-08-06T12:51:53;30.80;44.70
80701;DHT22;71609;42.630;23.380;2023-08-06T12:54:20;30.80;44.80
80701;DHT22;71609;42.630;23.380;2023-08-06T12:56:46;30.80;44.80
80701;DHT22;71609;42.630;23.380;2023-08-06T12:59:15;30.80;45.00
80701;DHT22;71609;42.630;23.380;2023-08-06T13:01:41;30.80;45.00
80701;DHT22;71609;42.630;23.380;2023-08-06T13:04:07;30.80;45.00
80701;DHT22;71609;42.630;23.380;2023-08-06T13:06:33;30.70;45.00
80701;DHT22;71609;42.630;23.380;2023-08-06T13:09:06;30.70;45.10
80701;DHT22;71609;42.630;23.380;2023-08-06T13:11:36;30.70;45.00
80701;DHT22;71609;42.630;23.380;2023-08-06T13:14:08;30.70;45.10
80701;DHT22;71609;42.630;23.380;2023-08-06T13:16:38;30.70;45.20
80701;DHT22;71609;42.630;23.380;2023-08-06T13:19:05;30.70;45.20
80701;DHT22;71609;42.630;23.380;2023-08-06T13:21:57;30.70;45.10
80701;DHT22;71609;42.630;23.380;2023-08-06T13:24:21;30.70;45.00
80701;DHT22;71609;42.630;23.380;2023-08-06T13:26:46;30.70;45.10
80701;DHT22;71609;42.630;23.380;2023-08-06T13:29:12;30.70;45.00
80701;DHT22;71609;42.630;23.380;2023-08-06T13:31:38;30.70;45.10
80701;DHT22;71609;42.630;23.380;2023-08-06T13:34:04;30.70;45.20
80701;DHT22;71609;42.630;23.380;2023-08-06T13:36:30;30.70;45.20
80701;DHT22;71609;42.630;23.380;2023-08-06T13:38:56;30.60;45.20
80701;DHT22;71609;42.630;23.380;2023-08-06T13:41:22;30.60;45.20
80701;DHT22;71609;42.630;23.380;2023-08-06T13:43:48;30.60;45.20
80701;DHT22;71609;42.630;23.380;2023-08-06T13:46:14;30.60;45.30
80701;DHT22;71609;42.630;23.380;2023-08-06T13:48:42;30.60;45.20
80701;DHT22;71609;42.630;23.380;2023-08-06T13:51:09;30.60;45.30
80701;DHT22;71609;42.630;23.380;2023-08-06T13:53:34;30.60;45.30
80701;DHT22;71609;42.630;23.380;2023-08-06T13:56:00;30.60;45.40
80701;DHT22;71609;42.630;23.380;2023-08-06T13:58:26;30.60;45.40
80701;DHT22;71609;42.630;23.380;2023-08-06T14:00:52;30.50;45.50
80701;DHT22;71609;42.630;23.380;2023-08-06T14:03:20;30.50;45.50
80701;DHT22;71609;42.630;23.380;2023-08-06T14:05:45;30.50;45.40
80701;DHT22;71609;42.630;23.380;2023-08-06T14:08:11;30.60;45.50
80701;DHT22;71609;42.630;23.380;2023-08-06T14:10:37;30.60;45.50
80701;DHT22;71609;42.630;23.380;2023-08-06T14:13:03;30.50;45.40
80701;DHT22;71609;42.630;23.380;2023-08-06T14:15:28;30.60;45.50
80701;DHT22;71609;42.630;23.380;2023-08-06T14:17:54;30.50;45.50
80701;DHT22;71609;42.630;23.380;2023-08-06T14:20:20;30.50;45.50
80701;DHT22;71609;42.630;23.380;2023-08-06T14:22:45;30.50;45.50
80701;DHT22;71609;42.630;23.380;2023-08-06T14:25:11;30.60;45.50
80701;DHT22;71609;42.630;23.380;2023-08-06T14:27:36;30.60;45.50
80701;DHT22;71609;42.630;23.380;2023-08-06T14:30:05;30.60;45.50
80701;DHT22;71609;42.630;23.380;2023-08-06T14:32:32;30.60;45.50
80701;DHT22;71609;42.630;23.380;2023-08-06T14:34:57;30.50;45.40
80701;DHT22;71609;42.630;23.380;2023-08-06T14:37:24;30.50;45.50
80701;DHT22;71609;42.630;23.380;2023-08-06T14:39:50;30.50;45.40
80701;DHT22;71609;42.630;23.380;2023-08-06T14:42:16;30.50;45.50
80701;DHT22;71609;42.630;23.380;2023-08-06T14:44:41;30.50;45.50
80701;DHT22;71609;42.630;23.380;2023-08-06T14:47:07;30.50;45.50
80701;DHT22;71609;42.630;23.380;2023-08-06T14:49:32;30.50;45.50
80701;DHT22;71609;42.630;23.380;2023-08-06T14:51:58;30.50;45.50
80701;DHT22;71609;42.630;23.380;2023-08-06T14:54:25;30.50;45.50
80701;DHT22;71609;42.630;23.380;2023-08-06T14:56:52;30.50;45.50
80701;DHT22;71609;42.630;23.380;2023-08-06T14:59:17;30.50;45.60
80701;DHT22;71609;42.630;23.380;2023-08-06T15:01:43;30.50;45.70
80701;DHT22;71609;42.630;23.380;2023-08-06T15:04:09;30.50;45.60
80701;DHT22;71609;42.630;23.380;2023-08-06T15:06:34;30.50;45.70
80701;DHT22;71609;42.630;23.380;2023-08-06T15:09:00;30.50;45.70
80701;DHT22;71609;42.630;23.380;2023-08-06T15:11:26;30.50;45.70
80701;DHT22;71609;42.630;23.380;2023-08-06T15:13:52;30.50;45.70
80701;DHT22;71609;42.630;23.380;2023-08-06T15:16:18;30.50;45.60
80701;DHT22;71609;42.630;23.380;2023-08-06T15:18:43;30.50;45.70
80701;DHT22;71609;42.630;23.380;2023-08-06T15:21:10;30.50;45.70
80701;DHT22;71609;42.630;23.380;2023-08-06T15:23:35;30.50;45.70
80701;DHT22;71609;42.630;23.380;2023-08-06T15:26:02;30.40;45.70
80701;DHT22;71609;42.630;23.380;2023-08-06T15:28:27;30.50;45.70